Detalii statie AGROSAMI SACALAZ [00001988]

Toti senzorii

Date Temperatura solului [C]Precipitatii [mm]Voltaj baterie [mV]Leaf Wetness [Min]HC Air temperature [C]HC Relative humidity [%]Punctul de roua [C]
medieminmaxsumaultimatimpmedieminmaxmediemediemin
2018-08-12 11:00:00 0 7324 30.57 29.75 31.3 58.03 21.1 20.4
2018-08-12 12:00:00 0 7324 32.58 31.44 33.91 52.29 21.3 20.5
2018-08-12 13:00:00 0 7314 33.54 32.75 34.67 51.22 21.8 21.2
2018-08-12 14:00:00 0 7314 34.86 33.63 36.04 49.54 22.5 21.3
2018-08-12 15:00:00 0 7314 34.98 34.35 35.62 48.01 22.1 20.6
2018-08-12 16:00:00 0 7324 34.93 33.8 35.98 45.41 21.1 20.2
2018-08-12 17:00:00 0 7314 34.42 33.91 35.1 45.65 20.7 20.1
2018-08-12 18:00:00 0 7236 33.3 32.51 34.25 50.14 21.2 20.2
2018-08-12 19:00:00 0 7186 30.43 28.69 32.07 61.01 21.8 21.1
2018-08-12 20:00:00 0 7030 26.35 24.87 28.3 75.81 21.5 21.2
2018-08-12 21:00:00 0 7010 23.97 23.44 24.63 83.96 20.9 20.8
2018-08-12 22:00:00 0 7010 24.53 24.21 24.81 79.86 20.6 20.2
2018-08-12 23:00:00 0 7000 23.62 22.5 24.13 82.9 20.3 19.9
2018-08-13 00:00:00 0 7000 21.79 21.5 22.19 91.52 20.2 20
2018-08-13 01:00:00 0 6992 21.59 20.82 21.9 90.63 19.8 19.7
2018-08-13 02:00:00 0 6992 19.61 19.13 20.58 99.24 19.4 19.1
2018-08-13 03:00:00 0 6982 18.78 18.59 19.03 100 18.7 18.5
2018-08-13 04:00:00 0 6982 18.93 18.63 19.16 100 18.9 18.6
2018-08-13 05:00:00 0 6972 18.56 18.07 19.16 100 18.5 18
2018-08-13 06:00:00 0 6972 18.06 17.83 18.27 100 18 17.8
2018-08-13 07:00:00 0 7010 18.45 17.9 19.25 100 18.4 17.9
2018-08-13 08:00:00 0 7070 21.09 19.45 24.3 97.29 20.5 19.4
2018-08-13 09:00:00 0 7148 27.81 25.28 29.5 72.21 22.1 21.8
2018-08-13 10:00:00 0 7284 30.96 29.35 32.12 61.56 22.5 21.2
2018-08-13 11:00:00 0 7324 31.95 31.23 32.74 50.51 20.1 18.5
2018-08-13 12:00:00 0 7324 33.04 32.57 33.64 42.6 18.4 17.8
2018-08-13 13:00:00 0 7324 33.9 33.4 34.51 39.71 18 17.2
2018-08-13 14:00:00 0 7314 35.01 34.22 35.59 39.49 18.9 17.4
2018-08-13 15:00:00 0 7324 35.31 34.81 35.62 38.56 18.8 17.9
2018-08-13 16:00:00 0 7324 34.6 34.23 34.85 39.1 18.4 17.4
2018-08-13 17:00:00 0 7314 34.05 33.37 35.24 38.51 17.6 16.6
2018-08-13 18:00:00 0 7314 32.27 31.49 33.44 40.65 16.9 16.4
2018-08-13 19:00:00 0 7206 29.88 28.43 31.33 45.85 16.7 16
2018-08-13 20:00:00 0 7030 26.59 25.08 28.25 55.8 16.8 16.6
2018-08-13 21:00:00 0 7020 24.27 23.66 24.86 65.56 17.2 16.8
2018-08-13 22:00:00 0 7000 22.66 22.22 23.43 73.07 17.4 17.1
2018-08-13 23:00:00 0 7000 21.73 21.19 22.07 76.71 17.3 17.2
2018-08-14 00:00:00 0 7000 20.31 19.48 21.14 83.12 17.2 17.1
2018-08-14 01:00:00 0 6982 19.44 19.26 19.7 89.07 17.4 17.2
2018-08-14 02:00:00 0 6982 19.34 19.18 19.69 89.94 17.5 17.3
2018-08-14 03:00:00 0 6982 19.34 18.58 19.8 90.34 17.6 17.4
2018-08-14 04:00:00 0 6972 18.88 18.26 19.33 93.39 17.6 17.5
2018-08-14 05:00:00 0 6972 18.89 18.77 19.06 92.34 17.4 17.3
2018-08-14 06:00:00 0 6972 17.96 17.6 18.34 96.71 17.3 17.2
2018-08-14 07:00:00 0 7020 18.97 18.11 20.12 91.5 17.4 17.1
2018-08-14 08:00:00 0 7138 21.5 20.52 23.8 84.06 18.5 18
2018-08-14 09:00:00 0 7226 27.12 25.17 28.47 62.92 19.2 18.6
2018-08-14 10:00:00 0 7324 29.35 28.52 30.86 54.72 19.1 18.4